Spokane International Airport
KGEG : now visible

Airfield :











YOU CAN JOIN US ON...

 
LOGIN :

Register | Disclaimer

   EN    FR    IT 

 









Legend :    VFR   Marginal VFR   IFR   Intensive IFR   Very Intensive IFR
Visi :
Ceiling :
>= 8 km
>= 3000ft
5 to 8 km
1000 to 3000 ft
1500m to 5 km
500 to 1000 ft
800 to 1500m
200 to 500 ft
< 800m
< 200 ft
Symbols :   Thunderstorms  Fog  Heavy snow  Heavy precipitations  Wind > 20 kt






- Airport Elevation : 2376 ft
- IATA code : GEG


KGEG - Spokane International

CURRENT METAR :
  • 240853Z 00000KT 10SM SCT200 08/M02 A2990 RMK AO2 SLP121 T00831022 50000

EXPIRED METARs :
  • 240753Z 23004KT 10SM SCT200 09/M02 A2991 RMK AO2 SLP123 T00941022 402000033
  • 240653Z 23004KT 10SM CLR 11/M02 A2990 RMK AO2 SLP121 T01061022
  • 240553Z 23006KT 10SM CLR 12/M02 A2990 RMK AO2 SLP122 T01171022 10200 20117 50004
  • 240453Z 24005KT 10SM FEW150 BKN250 13/M02 A2990 RMK AO2 SLP125 T01281017

TAF KGEG
Valid from the 24 at 06:00 until the 25 at 06:00 UTC


240520Z 2406/2506 23005KT P6SM SCT250
FM240900 17004KT P6SM FEW150 SCT200
FM241800 22013G21KT P6SM BKN200
FM250200 22010KT P6SM BKN200
KZSE FIR / North America



MET'MAP, your aeronautical weather chart ! - Copyright ORBIFLY December 2007 - Disclaimer

ORBIFLY MET'MAP TEAM :

Programming & Development : Alexandra Zaïnal
Original concept : Baudouin d'Aumeries
Technical & hardware support : Manuel Goepfert
Assistance : Marc-Olivier Méhu




SOURCES & CREDITS :

   NOAA       Earth
Advisory